Terminal Aerodrome Forecast
Issued by NWS

Home | Current Version | Previous Version | Text Only | Print | Product List | Glossary On
Versions: 1 2 3 4 5 6 7 8 9 10 11 12 13 14 15 16 17 18 19 20 21 22 23 24
000
FTUS46 KOTX 231733
TAFSFF
TAF
KSFF 231733Z 2318/2418 10003KT P6SM FEW110 SCT200
     FM231900 18010KT P6SM SCT080 BKN120
     FM232200 22017G24KT P6SM VCTS SCT050CB BKN100
     FM240000 23015G25KT P6SM -TSRA BKN050CB OVC100
      TEMPO 2400/2403 23025G40KT P6SM TSRA OVC040CB
     FM240300 22015KT P6SM VCSH SCT030 BKN050 BKN100=

USA.gov is the U.S. government's official web portal to all federal, state and local government web resources and services.